• Join FlightAware (Why Join?)
  • Login
  • US Flag 
12:53AM EDT


 

Airport Tracker/Info


-or-


 

Live Flight TrackerFlight Track Log ✈ SWA3764 ✈ 08-May-2013 ✈ KBNA - KECP

Flight Track Log - Related Links

Times and Time Zones

All times are in EDT time to prevent confusion due to time zone crossing. See the SWA3764 flight status page for this flight to view local times or setup timezone preferences in your user account.

Time Position Orientation Groundspeed Altitude Reporting Facility
EDT Latitude Longitude Course Direction KTS MPH feet Rate Location/Type
09:16AM 36.1333 -86.6500 39° Northeast 157 181 1,100  Level Nashville TRACON
09:17AM 36.1500 -86.6333 39° Northeast 172 198 2,400 2,160 Climbing Nashville TRACON
09:18AM 36.1333 -86.5667 107° East 252 290 4,800 2,700 Climbing Nashville TRACON
09:20AM 35.9919 -86.6294 200° South 300 345 10,900 3,000 Climbing Memphis Center
09:21AM 35.8992 -86.6669 198° South 330 380 13,900 3,180 Climbing Memphis Center
09:22AM 35.7981 -86.6969 194° South 367 422 17,300 3,180 Climbing Memphis Center
09:23AM 35.6794 -86.7075 184° South 386 444 20,300 2,700 Climbing Memphis Center
09:24AM 35.4969 -86.7247 184° South 413 475 24,500 2,340 Climbing Atlanta Center
09:25AM 35.3819 -86.7364 185° South 415 478 26,600 1,980 Climbing Atlanta Center
09:26AM 35.2586 -86.7475 184° South 428 493 28,500 1,860 Climbing Atlanta Center
09:27AM 35.1311 -86.7611 185° South 450 518 30,400 3,720 Climbing Atlanta Center
09:28AM 35.0078 -86.7725 184° South 456 525 36,000 1,800 Climbing Atlanta Center
09:29AM 34.8803 -86.7833 184° South 456 525 34,000 -780 Descending Atlanta Center
09:30AM 34.7569 -86.7944 184° South 461 531 34,500 480 Climbing Atlanta Center
09:31AM 34.6314 -86.8056 184° South 461 531 35,000 720 Climbing Atlanta Center
09:32AM 34.5081 -86.8192 185° South 461 531 36,000 900 Climbing Atlanta Center
09:33AM 34.3783 -86.8300 184° South 461 531 36,800 960 Climbing Atlanta Center
09:34AM 34.2486 -86.8408 184° South 467 537 38,000 600 Climbing Atlanta Center
09:35AM 34.1356 -86.8547 186° South 462 532 38,000  Level Atlanta Center
09:36AM 34.0081 -86.8656 184° South 462 532 38,000  Level Atlanta Center
09:37AM 33.8806 -86.8789 185° South 462 532 38,000  Level Atlanta Center
09:38AM 33.7572 -86.8897 184° South 462 532 38,000  Level Atlanta Center
09:39AM 33.6319 -86.8856 178° South 457 526 38,000  Level Atlanta Center
09:40AM 33.5100 -86.8342 161° South 457 526 38,000  Level Atlanta Center
09:41AM 33.3881 -86.7831 161° South 463 533 38,000 -360 Level Atlanta Center
09:42AM 33.2597 -86.7292 161° South 468 539 37,300 -900 Descending Atlanta Center
09:43AM 33.1356 -86.6833 163° South 457 526 36,300 -1,020 Descending Atlanta Center
09:44AM 33.0156 -86.6350 161° South 457 526 35,300 -720 Descending Atlanta Center
09:45AM 32.8953 -86.5894 162° South 457 526 34,900 -660 Descending Atlanta Center
09:46AM 32.7753 -86.5389 160° South 457 526 34,000 -480 Descending Atlanta Center
09:47AM 32.6531 -86.4911 162° South 457 526 34,000  Level Atlanta Center
09:48AM 32.5331 -86.4433 161° South 457 526 34,000 -540 Level Atlanta Center
09:49AM 32.4214 -86.3961 160° South 465 535 33,000 -1,020 Descending Atlanta Center
09:50AM 32.2989 -86.3511 163° South 473 544 32,000 -960 Descending Atlanta Center
09:51AM 32.1744 -86.3136 166° South 469 540 31,100 -960 Descending Atlanta Center
09:52AM 32.0478 -86.2783 167° South 469 540 30,100 -1,800 Descending Atlanta Center
09:55AM 31.7642 -86.2058 168° South 448 516 25,200 -1,860 Descending Jacksonville Center
09:56AM 31.6500 -86.1775 168° South 435 501 24,000 -840 Descending Jacksonville Center
09:57AM 31.5403 -86.1492 168° South 421 484 23,600 -1,380 Descending Jacksonville Center
09:58AM 31.4281 -86.1208 168° South 415 478 21,300 -2,220 Descending Jacksonville Center
09:59AM 31.3225 -86.0931 167° South 408 470 19,200 -2,040 Descending Jacksonville Center
10:00AM 31.2164 -86.0700 169° South 393 452 17,300 -2,040 Descending Jacksonville Center
10:01AM 31.1192 -86.0422 166° South 379 436 15,200 -2,100 Descending Jacksonville Center
10:02AM 31.0214 -86.0219 170° South 368 423 13,200 -1,980 Descending Jacksonville Center
10:03AM 30.9281 -85.9947 166° South 362 417 11,300 -1,140 Descending Jacksonville Center
10:04AM 30.8389 -85.9725 168° South 346 398 11,000 -600 Descending Jacksonville Center
10:05AM 30.7603 -85.9408 161° South 331 381 10,200 -1,140 Descending Jacksonville Center
10:06AM 30.6864 -85.8950 152° Southeast 306 352 8,800 -1,260 Descending Jacksonville Center
10:07AM 30.6186 -85.8447 147° Southeast 295 339 7,700 -960 Descending Jacksonville Center
10:08AM 30.5694 -85.7972 140° Southeast 288 331 6,900 1,620 Descending Jacksonville Center
10:09AM 30.4869 -85.7514 154° Southeast 288 331 11,000 2,040 Climbing Jacksonville Center
10:10AM 30.4150 -85.7083 153° Southeast 288 331 11,000  Level Jacksonville Center
10:11AM 30.3428 -85.6631 152° Southeast 288 331 11,000  Level Jacksonville Center
10:12AM 30.2997 -85.6375 153° Southeast 288 331 11,000  Level Jacksonville Center
10:14AM 30.3500 -85.7833 278° West  Level FlightAware Approximate
10:21AM 30.3582 -85.7956 278° West  Level Estimated
10:22AM 30.3582 -85.7956 278° West  Level Estimated